sensor_id;sensor_type;location;lat;lon;timestamp;pressure;altitude;pressure_sealevel;temperature;humidity
9257;BME280;4665;51.368;6.782;2023-01-19T00:01:38;99898.13;;;0.64;100.00
9257;BME280;4665;51.368;6.782;2023-01-19T00:04:03;99890.72;;;0.58;100.00
9257;BME280;4665;51.368;6.782;2023-01-19T00:06:29;99890.94;;;0.55;100.00
9257;BME280;4665;51.368;6.782;2023-01-19T00:08:55;99896.81;;;0.58;100.00
9257;BME280;4665;51.368;6.782;2023-01-19T00:11:21;99891.91;;;0.54;100.00
9257;BME280;4665;51.368;6.782;2023-01-19T00:13:47;99901.00;;;0.61;100.00
9257;BME280;4665;51.368;6.782;2023-01-19T00:16:17;99910.03;;;0.57;100.00
9257;BME280;4665;51.368;6.782;2023-01-19T00:18:44;99900.69;;;0.53;100.00
9257;BME280;4665;51.368;6.782;2023-01-19T00:21:10;99899.97;;;0.51;100.00
9257;BME280;4665;51.368;6.782;2023-01-19T00:23:35;99902.72;;;0.49;100.00
9257;BME280;4665;51.368;6.782;2023-01-19T00:26:01;99898.75;;;0.44;100.00
9257;BME280;4665;51.368;6.782;2023-01-19T00:28:26;99908.16;;;0.46;100.00
9257;BME280;4665;51.368;6.782;2023-01-19T00:30:52;99922.22;;;0.45;100.00
9257;BME280;4665;51.368;6.782;2023-01-19T00:33:17;99915.44;;;0.43;100.00
9257;BME280;4665;51.368;6.782;2023-01-19T00:35:43;99907.34;;;0.46;100.00
9257;BME280;4665;51.368;6.782;2023-01-19T00:38:10;99923.88;;;0.46;100.00
9257;BME280;4665;51.368;6.782;2023-01-19T00:40:35;99920.53;;;0.44;100.00
9257;BME280;4665;51.368;6.782;2023-01-19T00:43:01;99909.47;;;0.40;100.00
9257;BME280;4665;51.368;6.782;2023-01-19T00:45:27;99916.34;;;0.41;100.00
9257;BME280;4665;51.368;6.782;2023-01-19T00:47:52;99919.22;;;0.38;100.00
9257;BME280;4665;51.368;6.782;2023-01-19T00:50:22;99908.00;;;0.36;100.00
9257;BME280;4665;51.368;6.782;2023-01-19T00:52:47;99913.25;;;0.36;100.00
9257;BME280;4665;51.368;6.782;2023-01-19T00:55:14;99916.00;;;0.35;100.00
9257;BME280;4665;51.368;6.782;2023-01-19T00:57:40;99915.63;;;0.39;100.00
9257;BME280;4665;51.368;6.782;2023-01-19T01:00:12;99914.28;;;0.34;100.00
9257;BME280;4665;51.368;6.782;2023-01-19T01:02:39;99923.72;;;0.36;100.00
9257;BME280;4665;51.368;6.782;2023-01-19T01:05:05;99920.38;;;0.34;100.00
9257;BME280;4665;51.368;6.782;2023-01-19T01:07:32;99927.28;;;0.35;100.00
9257;BME280;4665;51.368;6.782;2023-01-19T01:10:16;99918.72;;;0.33;100.00
9257;BME280;4665;51.368;6.782;2023-01-19T01:12:42;99923.31;;;0.30;100.00
9257;BME280;4665;51.368;6.782;2023-01-19T01:15:10;99917.16;;;0.31;100.00
9257;BME280;4665;51.368;6.782;2023-01-19T01:17:36;99932.97;;;0.29;100.00
9257;BME280;4665;51.368;6.782;2023-01-19T01:20:02;99926.06;;;0.28;100.00
9257;BME280;4665;51.368;6.782;2023-01-19T01:22:29;99930.03;;;0.34;100.00
9257;BME280;4665;51.368;6.782;2023-01-19T01:24:55;99934.53;;;0.32;100.00
9257;BME280;4665;51.368;6.782;2023-01-19T01:27:20;99929.69;;;0.38;100.00
9257;BME280;4665;51.368;6.782;2023-01-19T01:29:46;99928.97;;;0.36;100.00
9257;BME280;4665;51.368;6.782;2023-01-19T01:32:16;99925.41;;;0.37;100.00
9257;BME280;4665;51.368;6.782;2023-01-19T01:34:47;99931.88;;;0.45;100.00
9257;BME280;4665;51.368;6.782;2023-01-19T01:37:13;99921.41;;;0.45;100.00
9257;BME280;4665;51.368;6.782;2023-01-19T01:39:38;99929.03;;;0.48;100.00
9257;BME280;4665;51.368;6.782;2023-01-19T01:42:14;99926.41;;;0.48;100.00
9257;BME280;4665;51.368;6.782;2023-01-19T01:47:16;99929.44;;;0.54;100.00
9257;BME280;4665;51.368;6.782;2023-01-19T01:49:42;99922.50;;;0.53;100.00
9257;BME280;4665;51.368;6.782;2023-01-19T01:52:09;99925.50;;;0.60;100.00
9257;BME280;4665;51.368;6.782;2023-01-19T01:54:35;99922.16;;;0.58;100.00
9257;BME280;4665;51.368;6.782;2023-01-19T01:57:04;99917.53;;;0.61;100.00
9257;BME280;4665;51.368;6.782;2023-01-19T01:59:39;99929.91;;;0.59;100.00
9257;BME280;4665;51.368;6.782;2023-01-19T02:02:18;99920.91;;;0.63;100.00
9257;BME280;4665;51.368;6.782;2023-01-19T02:05:33;99928.13;;;0.60;100.00
9257;BME280;4665;51.368;6.782;2023-01-19T02:08:19;99906.91;;;0.52;100.00
9257;BME280;4665;51.368;6.782;2023-01-19T02:11:08;99918.31;;;0.51;100.00
9257;BME280;4665;51.368;6.782;2023-01-19T02:13:52;99916.31;;;0.54;100.00
9257;BME280;4665;51.368;6.782;2023-01-19T02:16:18;99916.56;;;0.51;100.00
9257;BME280;4665;51.368;6.782;2023-01-19T02:18:43;99923.56;;;0.51;100.00
9257;BME280;4665;51.368;6.782;2023-01-19T02:24:03;99920.94;;;0.51;100.00
9257;BME280;4665;51.368;6.782;2023-01-19T02:26:30;99911.66;;;0.47;100.00
9257;BME280;4665;51.368;6.782;2023-01-19T02:29:03;99919.50;;;0.47;100.00
9257;BME280;4665;51.368;6.782;2023-01-19T02:31:30;99908.56;;;0.53;100.00
9257;BME280;4665;51.368;6.782;2023-01-19T02:33:59;99914.47;;;0.44;100.00
9257;BME280;4665;51.368;6.782;2023-01-19T02:36:49;99916.34;;;0.41;100.00
9257;BME280;4665;51.368;6.782;2023-01-19T02:39:15;99916.59;;;0.38;100.00
9257;BME280;4665;51.368;6.782;2023-01-19T02:41:50;99908.97;;;0.35;100.00
9257;BME280;4665;51.368;6.782;2023-01-19T02:44:17;99911.91;;;0.31;100.00
9257;BME280;4665;51.368;6.782;2023-01-19T02:46:44;99917.88;;;0.33;100.00
9257;BME280;4665;51.368;6.782;2023-01-19T02:49:09;99903.66;;;0.24;100.00
9257;BME280;4665;51.368;6.782;2023-01-19T02:51:35;99907.94;;;0.25;100.00
9257;BME280;4665;51.368;6.782;2023-01-19T02:59:52;99912.44;;;0.23;100.00
9257;BME280;4665;51.368;6.782;2023-01-19T03:04:58;99912.44;;;0.23;100.00
9257;BME280;4665;51.368;6.782;2023-01-19T03:13:15;99913.91;;;0.27;100.00
9257;BME280;4665;51.368;6.782;2023-01-19T03:16:05;99906.50;;;0.21;100.00
9257;BME280;4665;51.368;6.782;2023-01-19T03:18:31;99911.78;;;0.32;100.00
9257;BME280;4665;51.368;6.782;2023-01-19T03:21:01;99911.56;;;0.35;100.00
9257;BME280;4665;51.368;6.782;2023-01-19T03:23:30;99912.63;;;0.33;100.00
9257;BME280;4665;51.368;6.782;2023-01-19T03:25:58;99920.28;;;0.36;100.00
9257;BME280;4665;51.368;6.782;2023-01-19T03:28:27;99911.34;;;0.38;100.00
9257;BME280;4665;51.368;6.782;2023-01-19T03:31:08;99917.22;;;0.42;100.00
9257;BME280;4665;51.368;6.782;2023-01-19T03:33:36;99911.97;;;0.42;100.00
9257;BME280;4665;51.368;6.782;2023-01-19T03:36:10;99906.28;;;0.48;100.00
9257;BME280;4665;51.368;6.782;2023-01-19T03:38:39;99914.63;;;0.53;100.00
9257;BME280;4665;51.368;6.782;2023-01-19T03:41:10;99908.34;;;0.56;100.00
9257;BME280;4665;51.368;6.782;2023-01-19T03:43:38;99916.72;;;0.61;100.00
9257;BME280;4665;51.368;6.782;2023-01-19T03:46:05;99912.19;;;0.63;100.00
9257;BME280;4665;51.368;6.782;2023-01-19T03:48:32;99917.31;;;0.65;100.00
9257;BME280;4665;51.368;6.782;2023-01-19T03:51:03;99918.44;;;0.73;100.00
9257;BME280;4665;51.368;6.782;2023-01-19T03:53:29;99910.56;;;0.73;100.00
9257;BME280;4665;51.368;6.782;2023-01-19T03:55:54;99915.81;;;0.73;100.00
9257;BME280;4665;51.368;6.782;2023-01-19T03:58:20;99920.00;;;0.76;100.00
9257;BME280;4665;51.368;6.782;2023-01-19T04:00:46;99926.78;;;0.78;100.00
9257;BME280;4665;51.368;6.782;2023-01-19T04:03:14;99917.38;;;0.76;100.00
9257;BME280;4665;51.368;6.782;2023-01-19T04:05:40;99923.91;;;0.70;100.00
9257;BME280;4665;51.368;6.782;2023-01-19T04:08:06;99922.34;;;0.68;100.00
9257;BME280;4665;51.368;6.782;2023-01-19T04:10:31;99919.34;;;0.61;100.00
9257;BME280;4665;51.368;6.782;2023-01-19T04:12:58;99920.66;;;0.67;100.00
9257;BME280;4665;51.368;6.782;2023-01-19T04:15:23;99910.13;;;0.55;100.00
9257;BME280;4665;51.368;6.782;2023-01-19T04:17:49;99924.50;;;0.50;100.00
9257;BME280;4665;51.368;6.782;2023-01-19T04:20:15;99934.03;;;0.51;100.00
9257;BME280;4665;51.368;6.782;2023-01-19T04:22:40;99928.63;;;0.41;100.00
9257;BME280;4665;51.368;6.782;2023-01-19T04:25:07;99929.78;;;0.37;100.00
9257;BME280;4665;51.368;6.782;2023-01-19T04:27:34;99924.38;;;0.27;100.00
9257;BME280;4665;51.368;6.782;2023-01-19T04:30:00;99914.13;;;0.24;100.00
9257;BME280;4665;51.368;6.782;2023-01-19T04:32:28;99912.16;;;0.15;100.00
9257;BME280;4665;51.368;6.782;2023-01-19T04:34:53;99924.03;;;0.08;100.00
9257;BME280;4665;51.368;6.782;2023-01-19T04:37:19;99921.09;;;-0.01;100.00
9257;BME280;4665;51.368;6.782;2023-01-19T04:39:44;99919.72;;;0.07;100.00
9257;BME280;4665;51.368;6.782;2023-01-19T04:42:10;99920.91;;;0.03;100.00
9257;BME280;4665;51.368;6.782;2023-01-19T04:44:35;99915.84;;;-0.01;100.00
9257;BME280;4665;51.368;6.782;2023-01-19T04:47:01;99921.31;;;-0.04;100.00
9257;BME280;4665;51.368;6.782;2023-01-19T04:49:27;99931.16;;;0.06;100.00
9257;BME280;4665;51.368;6.782;2023-01-19T04:51:52;99929.91;;;-0.02;100.00
9257;BME280;4665;51.368;6.782;2023-01-19T04:54:19;99928.44;;;-0.06;100.00
9257;BME280;4665;51.368;6.782;2023-01-19T04:56:44;99926.97;;;-0.10;100.00
9257;BME280;4665;51.368;6.782;2023-01-19T04:59:10;99916.81;;;-0.14;100.00
9257;BME280;4665;51.368;6.782;2023-01-19T05:01:36;99931.47;;;-0.12;100.00
9257;BME280;4665;51.368;6.782;2023-01-19T05:04:02;99935.88;;;-0.12;100.00
9257;BME280;4665;51.368;6.782;2023-01-19T05:06:30;99944.38;;;-0.09;100.00
9257;BME280;4665;51.368;6.782;2023-01-19T05:08:55;99949.78;;;-0.12;100.00
9257;BME280;4665;51.368;6.782;2023-01-19T05:11:21;99934.94;;;-0.11;100.00
9257;BME280;4665;51.368;6.782;2023-01-19T05:13:46;99937.66;;;-0.13;100.00
9257;BME280;4665;51.368;6.782;2023-01-19T05:16:12;99952.72;;;-0.16;100.00
9257;BME280;4665;51.368;6.782;2023-01-19T05:18:38;99953.59;;;-0.16;100.00
9257;BME280;4665;51.368;6.782;2023-01-19T05:21:04;99954.00;;;-0.22;100.00
9257;BME280;4665;51.368;6.782;2023-01-19T05:23:30;99961.53;;;-0.30;100.00
9257;BME280;4665;51.368;6.782;2023-01-19T05:25:57;99959.34;;;-0.36;100.00
9257;BME280;4665;51.368;6.782;2023-01-19T05:28:26;99958.09;;;-0.44;100.00
9257;BME280;4665;51.368;6.782;2023-01-19T05:30:51;99960.72;;;-0.44;100.00
9257;BME280;4665;51.368;6.782;2023-01-19T05:33:17;99962.69;;;-0.47;100.00
9257;BME280;4665;51.368;6.782;2023-01-19T05:35:42;99958.50;;;-0.50;100.00
9257;BME280;4665;51.368;6.782;2023-01-19T05:38:08;99969.72;;;-0.48;100.00
9257;BME280;4665;51.368;6.782;2023-01-19T05:40:33;99966.88;;;-0.45;100.00
9257;BME280;4665;51.368;6.782;2023-01-19T05:43:01;99955.88;;;-0.50;100.00
9257;BME280;4665;51.368;6.782;2023-01-19T05:45:28;99960.91;;;-0.47;100.00
9257;BME280;4665;51.368;6.782;2023-01-19T05:47:54;99970.53;;;-0.47;100.00
9257;BME280;4665;51.368;6.782;2023-01-19T05:50:20;99973.69;;;-0.42;100.00
9257;BME280;4665;51.368;6.782;2023-01-19T05:52:46;99963.34;;;-0.44;100.00
9257;BME280;4665;51.368;6.782;2023-01-19T05:55:12;99988.25;;;-0.38;100.00
9257;BME280;4665;51.368;6.782;2023-01-19T05:57:39;99979.56;;;-0.38;100.00
9257;BME280;4665;51.368;6.782;2023-01-19T06:00:05;99974.53;;;-0.41;100.00
9257;BME280;4665;51.368;6.782;2023-01-19T06:02:30;99987.31;;;-0.37;100.00
9257;BME280;4665;51.368;6.782;2023-01-19T06:04:56;99983.00;;;-0.38;100.00
9257;BME280;4665;51.368;6.782;2023-01-19T06:07:22;99982.09;;;-0.37;100.00
9257;BME280;4665;51.368;6.782;2023-01-19T06:09:47;99974.31;;;-0.38;100.00
9257;BME280;4665;51.368;6.782;2023-01-19T06:12:13;99981.03;;;-0.34;100.00
9257;BME280;4665;51.368;6.782;2023-01-19T06:14:38;99981.97;;;-0.35;100.00
9257;BME280;4665;51.368;6.782;2023-01-19T06:17:05;99976.94;;;-0.38;100.00
9257;BME280;4665;51.368;6.782;2023-01-19T06:19:31;99991.69;;;-0.37;100.00
9257;BME280;4665;51.368;6.782;2023-01-19T06:21:56;99984.69;;;-0.37;100.00
9257;BME280;4665;51.368;6.782;2023-01-19T06:24:22;99982.78;;;-0.35;100.00
9257;BME280;4665;51.368;6.782;2023-01-19T06:26:49;99983.75;;;-0.36;100.00
9257;BME280;4665;51.368;6.782;2023-01-19T06:29:15;99987.00;;;-0.32;100.00
9257;BME280;4665;51.368;6.782;2023-01-19T06:31:41;99987.19;;;-0.35;100.00
9257;BME280;4665;51.368;6.782;2023-01-19T06:34:07;99999.66;;;-0.39;100.00
9257;BME280;4665;51.368;6.782;2023-01-19T06:36:33;100006.47;;;-0.36;100.00
9257;BME280;4665;51.368;6.782;2023-01-19T06:38:58;99999.53;;;-0.37;100.00
9257;BME280;4665;51.368;6.782;2023-01-19T06:41:27;100014.09;;;-0.33;100.00
9257;BME280;4665;51.368;6.782;2023-01-19T06:43:54;100016.72;;;-0.33;100.00
9257;BME280;4665;51.368;6.782;2023-01-19T06:46:19;100020.59;;;-0.26;100.00
9257;BME280;4665;51.368;6.782;2023-01-19T06:48:44;100020.59;;;-0.26;100.00
9257;BME280;4665;51.368;6.782;2023-01-19T06:51:11;100025.66;;;-0.23;100.00
9257;BME280;4665;51.368;6.782;2023-01-19T06:53:36;100036.63;;;-0.18;100.00
9257;BME280;4665;51.368;6.782;2023-01-19T06:56:02;100040.81;;;-0.15;100.00
9257;BME280;4665;51.368;6.782;2023-01-19T06:58:29;100047.13;;;-0.18;100.00
9257;BME280;4665;51.368;6.782;2023-01-19T07:01:00;100034.84;;;-0.17;100.00
9257;BME280;4665;51.368;6.782;2023-01-19T07:03:25;100048.38;;;-0.11;100.00
9257;BME280;4665;51.368;6.782;2023-01-19T07:05:51;100050.16;;;-0.11;100.00
9257;BME280;4665;51.368;6.782;2023-01-19T07:08:17;100059.69;;;-0.10;100.00
9257;BME280;4665;51.368;6.782;2023-01-19T07:10:42;100058.09;;;-0.13;100.00
9257;BME280;4665;51.368;6.782;2023-01-19T07:13:08;100060.50;;;-0.10;100.00
9257;BME280;4665;51.368;6.782;2023-01-19T07:15:34;100069.31;;;-0.11;100.00
9257;BME280;4665;51.368;6.782;2023-01-19T07:17:59;100073.41;;;-0.07;100.00
9257;BME280;4665;51.368;6.782;2023-01-19T07:20:29;100076.94;;;-0.08;100.00
9257;BME280;4665;51.368;6.782;2023-01-19T07:22:55;100082.94;;;-0.06;100.00
9257;BME280;4665;51.368;6.782;2023-01-19T07:25:21;100085.34;;;-0.03;100.00
9257;BME280;4665;51.368;6.782;2023-01-19T07:27:46;100088.91;;;-0.04;100.00
9257;BME280;4665;51.368;6.782;2023-01-19T07:30:12;100091.63;;;-0.05;100.00
9257;BME280;4665;51.368;6.782;2023-01-19T07:32:40;100091.44;;;-0.02;100.00
9257;BME280;4665;51.368;6.782;2023-01-19T07:35:08;100100.03;;;0.00;100.00
9257;BME280;4665;51.368;6.782;2023-01-19T07:37:33;100092.34;;;-0.03;100.00
9257;BME280;4665;51.368;6.782;2023-01-19T07:39:59;100096.53;;;-0.01;100.00
9257;BME280;4665;51.368;6.782;2023-01-19T07:42:24;100097.28;;;0.02;100.00
9257;BME280;4665;51.368;6.782;2023-01-19T07:44:50;100114.47;;;0.06;100.00
9257;BME280;4665;51.368;6.782;2023-01-19T07:47:15;100113.75;;;0.04;100.00
9257;BME280;4665;51.368;6.782;2023-01-19T07:49:41;100120.63;;;0.05;100.00
9257;BME280;4665;51.368;6.782;2023-01-19T07:52:06;100120.63;;;0.05;100.00
9257;BME280;4665;51.368;6.782;2023-01-19T07:54:32;100125.78;;;0.06;100.00
9257;BME280;4665;51.368;6.782;2023-01-19T07:56:57;100139.63;;;0.08;100.00
9257;BME280;4665;51.368;6.782;2023-01-19T07:59:25;100135.34;;;0.07;100.00
9257;BME280;4665;51.368;6.782;2023-01-19T08:01:50;100144.56;;;0.13;100.00
9257;BME280;4665;51.368;6.782;2023-01-19T08:04:17;100135.88;;;0.12;100.00
9257;BME280;4665;51.368;6.782;2023-01-19T08:06:44;100143.59;;;0.14;100.00
9257;BME280;4665;51.368;6.782;2023-01-19T08:09:10;100158.47;;;0.13;100.00
9257;BME280;4665;51.368;6.782;2023-01-19T08:11:36;100151.56;;;0.12;100.00
9257;BME280;4665;51.368;6.782;2023-01-19T08:14:02;100157.66;;;0.13;100.00
9257;BME280;4665;51.368;6.782;2023-01-19T08:16:27;100164.38;;;0.17;100.00
9257;BME280;4665;51.368;6.782;2023-01-19T08:18:52;100170.34;;;0.19;100.00
9257;BME280;4665;51.368;6.782;2023-01-19T08:21:18;100163.63;;;0.15;100.00
9257;BME280;4665;51.368;6.782;2023-01-19T08:23:50;100172.09;;;0.18;100.00
9257;BME280;4665;51.368;6.782;2023-01-19T08:26:27;100179.66;;;0.23;100.00
9257;BME280;4665;51.368;6.782;2023-01-19T08:28:55;100179.66;;;0.23;100.00
9257;BME280;4665;51.368;6.782;2023-01-19T08:31:22;100176.41;;;0.19;100.00
9257;BME280;4665;51.368;6.782;2023-01-19T08:33:48;100177.16;;;0.22;100.00
9257;BME280;4665;51.368;6.782;2023-01-19T08:36:13;100183.75;;;0.27;100.00
9257;BME280;4665;51.368;6.782;2023-01-19T08:38:39;100179.34;;;0.28;100.00
9257;BME280;4665;51.368;6.782;2023-01-19T08:41:08;100194.56;;;0.35;100.00
9257;BME280;4665;51.368;6.782;2023-01-19T08:43:34;100193.94;;;0.32;100.00
9257;BME280;4665;51.368;6.782;2023-01-19T08:45:59;100207.75;;;0.34;100.00
9257;BME280;4665;51.368;6.782;2023-01-19T08:48:24;100201.69;;;0.33;100.00
9257;BME280;4665;51.368;6.782;2023-01-19T08:50:51;100207.66;;;0.35;100.00
9257;BME280;4665;51.368;6.782;2023-01-19T08:53:17;100203.34;;;0.34;100.00
9257;BME280;4665;51.368;6.782;2023-01-19T08:55:44;100215.31;;;0.38;100.00
9257;BME280;4665;51.368;6.782;2023-01-19T08:58:10;100211.75;;;0.39;100.00
9257;BME280;4665;51.368;6.782;2023-01-19T09:00:37;100216.81;;;0.43;100.00
9257;BME280;4665;51.368;6.782;2023-01-19T09:03:04;100218.69;;;0.40;100.00
9257;BME280;4665;51.368;6.782;2023-01-19T09:05:31;100225.50;;;0.43;100.00
9257;BME280;4665;51.368;6.782;2023-01-19T09:08:00;100233.13;;;0.46;100.00
9257;BME280;4665;51.368;6.782;2023-01-19T09:10:27;100239.25;;;0.47;100.00
9257;BME280;4665;51.368;6.782;2023-01-19T09:12:56;100235.66;;;0.48;100.00
9257;BME280;4665;51.368;6.782;2023-01-19T09:15:22;100239.84;;;0.50;100.00
9257;BME280;4665;51.368;6.782;2023-01-19T09:17:47;100254.09;;;0.46;100.00
9257;BME280;4665;51.368;6.782;2023-01-19T09:20:13;100248.66;;;0.36;100.00
9257;BME280;4665;51.368;6.782;2023-01-19T09:22:38;100247.38;;;0.29;100.00
9257;BME280;4665;51.368;6.782;2023-01-19T09:25:06;100253.44;;;0.30;100.00
9257;BME280;4665;51.368;6.782;2023-01-19T09:27:31;100254.09;;;0.33;100.00
9257;BME280;4665;51.368;6.782;2023-01-19T09:29:57;100263.97;;;0.43;100.00
9257;BME280;4665;51.368;6.782;2023-01-19T09:32:23;100263.84;;;0.44;100.00
9257;BME280;4665;51.368;6.782;2023-01-19T09:34:48;100269.75;;;0.48;100.00
9257;BME280;4665;51.368;6.782;2023-01-19T09:37:13;100269.75;;;0.48;100.00
9257;BME280;4665;51.368;6.782;2023-01-19T09:39:42;100273.09;;;0.50;100.00
9257;BME280;4665;51.368;6.782;2023-01-19T09:44:50;100273.94;;;0.50;100.00
9257;BME280;4665;51.368;6.782;2023-01-19T09:47:21;100277.22;;;0.54;100.00
9257;BME280;4665;51.368;6.782;2023-01-19T09:49:52;100274.47;;;0.55;100.00
9257;BME280;4665;51.368;6.782;2023-01-19T09:52:22;100277.94;;;0.56;100.00
9257;BME280;4665;51.368;6.782;2023-01-19T09:54:56;100287.47;;;0.57;100.00
9257;BME280;4665;51.368;6.782;2023-01-19T09:57:23;100290.09;;;0.57;100.00
9257;BME280;4665;51.368;6.782;2023-01-19T09:59:49;100299.63;;;0.58;100.00
9257;BME280;4665;51.368;6.782;2023-01-19T10:10:25;100311.06;;;0.57;100.00
9257;BME280;4665;51.368;6.782;2023-01-19T10:15:44;100294.59;;;0.55;100.00
9257;BME280;4665;51.368;6.782;2023-01-19T10:23:49;100316.09;;;0.60;100.00
9257;BME280;4665;51.368;6.782;2023-01-19T10:28:44;100303.13;;;0.71;100.00
9257;BME280;4665;51.368;6.782;2023-01-19T10:31:11;100310.81;;;0.74;100.00
9257;BME280;4665;51.368;6.782;2023-01-19T10:33:38;100315.09;;;0.75;100.00
9257;BME280;4665;51.368;6.782;2023-01-19T10:36:09;100313.28;;;0.76;100.00
9257;BME280;4665;51.368;6.782;2023-01-19T10:38:41;100313.00;;;0.80;100.00
9257;BME280;4665;51.368;6.782;2023-01-19T10:41:12;100314.56;;;0.83;100.00
9257;BME280;4665;51.368;6.782;2023-01-19T10:46:06;100308.09;;;0.89;100.00
9257;BME280;4665;51.368;6.782;2023-01-19T10:48:37;100312.38;;;0.90;100.00
9257;BME280;4665;51.368;6.782;2023-01-19T10:51:05;100318.13;;;0.95;100.00
9257;BME280;4665;51.368;6.782;2023-01-19T10:53:31;100318.69;;;1.00;100.00
9257;BME280;4665;51.368;6.782;2023-01-19T10:56:16;100322.25;;;0.99;100.00
9257;BME280;4665;51.368;6.782;2023-01-19T10:58:45;100315.63;;;0.93;100.00
9257;BME280;4665;51.368;6.782;2023-01-19T11:01:26;100321.50;;;0.97;100.00
9257;BME280;4665;51.368;6.782;2023-01-19T11:03:53;100320.75;;;0.95;100.00
9257;BME280;4665;51.368;6.782;2023-01-19T11:08:46;100330.50;;;0.93;100.00
9257;BME280;4665;51.368;6.782;2023-01-19T11:11:13;100328.84;;;0.92;100.00
9257;BME280;4665;51.368;6.782;2023-01-19T11:13:39;100321.72;;;0.94;100.00
9257;BME280;4665;51.368;6.782;2023-01-19T11:18:54;100330.31;;;0.96;100.00
9257;BME280;4665;51.368;6.782;2023-01-19T11:21:26;100334.44;;;1.00;100.00
9257;BME280;4665;51.368;6.782;2023-01-19T11:23:55;100330.19;;;0.97;100.00
9257;BME280;4665;51.368;6.782;2023-01-19T11:26:26;100329.28;;;0.98;100.00
9257;BME280;4665;51.368;6.782;2023-01-19T11:28:54;100325.81;;;0.98;100.00
9257;BME280;4665;51.368;6.782;2023-01-19T11:33:55;100328.22;;;1.01;100.00
9257;BME280;4665;51.368;6.782;2023-01-19T11:36:26;100327.25;;;1.02;100.00
9257;BME280;4665;51.368;6.782;2023-01-19T11:38:55;100325.28;;;1.05;100.00
9257;BME280;4665;51.368;6.782;2023-01-19T11:41:25;100336.44;;;1.09;100.00
9257;BME280;4665;51.368;6.782;2023-01-19T11:43:57;100333.25;;;1.04;100.00
9257;BME280;4665;51.368;6.782;2023-01-19T11:46:27;100326.25;;;1.04;100.00
9257;BME280;4665;51.368;6.782;2023-01-19T11:49:28;100332.63;;;1.13;100.00
9257;BME280;4665;51.368;6.782;2023-01-19T11:55:25;100324.56;;;1.16;100.00
9257;BME280;4665;51.368;6.782;2023-01-19T11:57:53;100328.84;;;1.17;100.00
9257;BME280;4665;51.368;6.782;2023-01-19T12:00:37;100329.69;;;1.18;100.00
9257;BME280;4665;51.368;6.782;2023-01-19T12:05:38;100330.22;;;1.23;100.00
9257;BME280;4665;51.368;6.782;2023-01-19T12:08:11;100335.34;;;1.24;100.00
9257;BME280;4665;51.368;6.782;2023-01-19T12:10:40;100324.03;;;1.24;100.00
9257;BME280;4665;51.368;6.782;2023-01-19T12:13:23;100322.34;;;1.23;100.00
9257;BME280;4665;51.368;6.782;2023-01-19T12:16:04;100324.56;;;1.16;100.00
9257;BME280;4665;51.368;6.782;2023-01-19T12:18:38;100330.84;;;1.14;100.00
9257;BME280;4665;51.368;6.782;2023-01-19T12:21:05;100329.06;;;1.14;100.00
9257;BME280;4665;51.368;6.782;2023-01-19T12:26:47;100326.13;;;1.19;100.00
9257;BME280;4665;51.368;6.782;2023-01-19T12:29:21;100334.63;;;1.22;100.00
9257;BME280;4665;51.368;6.782;2023-01-19T12:34:39;100332.09;;;1.34;100.00
9257;BME280;4665;51.368;6.782;2023-01-19T12:37:06;100338.00;;;1.37;100.00
9257;BME280;4665;51.368;6.782;2023-01-19T12:39:51;100336.63;;;1.44;100.00
9257;BME280;4665;51.368;6.782;2023-01-19T12:42:17;100342.28;;;1.51;100.00
9257;BME280;4665;51.368;6.782;2023-01-19T12:44:44;100338.47;;;1.55;100.00
9257;BME280;4665;51.368;6.782;2023-01-19T12:49:43;100337.81;;;1.64;100.00
9257;BME280;4665;51.368;6.782;2023-01-19T12:57:58;100334.28;;;1.65;100.00
9257;BME280;4665;51.368;6.782;2023-01-19T13:02:54;100328.78;;;1.68;100.00
9257;BME280;4665;51.368;6.782;2023-01-19T13:15:56;100342.28;;;1.88;100.00
9257;BME280;4665;51.368;6.782;2023-01-19T13:18:32;100335.88;;;1.92;100.00
9257;BME280;4665;51.368;6.782;2023-01-19T13:21:05;100336.50;;;1.96;100.00
9257;BME280;4665;51.368;6.782;2023-01-19T13:26:15;100339.34;;;1.93;100.00
9257;BME280;4665;51.368;6.782;2023-01-19T13:28:43;100334.47;;;1.99;100.00
9257;BME280;4665;51.368;6.782;2023-01-19T13:31:10;100329.34;;;1.98;100.00
9257;BME280;4665;51.368;6.782;2023-01-19T13:33:56;100336.03;;;2.02;100.00
9257;BME280;4665;51.368;6.782;2023-01-19T13:38:56;100336.38;;;1.97;100.00
9257;BME280;4665;51.368;6.782;2023-01-19T13:41:24;100335.34;;;2.00;100.00
9257;BME280;4665;51.368;6.782;2023-01-19T13:44:23;100333.75;;;1.97;100.00
9257;BME280;4665;51.368;6.782;2023-01-19T13:46:50;100335.53;;;1.97;100.00
9257;BME280;4665;51.368;6.782;2023-01-19T13:54:30;100357.94;;;1.89;100.00
9257;BME280;4665;51.368;6.782;2023-01-19T13:56:55;100350.16;;;1.88;100.00
9257;BME280;4665;51.368;6.782;2023-01-19T13:59:21;100347.53;;;1.88;100.00
9257;BME280;4665;51.368;6.782;2023-01-19T14:01:46;100358.59;;;1.93;100.00
9257;BME280;4665;51.368;6.782;2023-01-19T14:04:32;100362.38;;;1.89;100.00
9257;BME280;4665;51.368;6.782;2023-01-19T14:07:04;100358.06;;;1.88;100.00
9257;BME280;4665;51.368;6.782;2023-01-19T14:09:31;100359.75;;;1.89;100.00
9257;BME280;4665;51.368;6.782;2023-01-19T14:12:15;100363.44;;;1.86;100.00
9257;BME280;4665;51.368;6.782;2023-01-19T14:14:42;100368.47;;;1.89;100.00
9257;BME280;4665;51.368;6.782;2023-01-19T14:17:35;100362.16;;;1.92;100.00
9257;BME280;4665;51.368;6.782;2023-01-19T14:20:01;100372.47;;;1.95;100.00
9257;BME280;4665;51.368;6.782;2023-01-19T14:22:44;100375.78;;;1.97;100.00
9257;BME280;4665;51.368;6.782;2023-01-19T14:31:16;100371.25;;;1.99;100.00
9257;BME280;4665;51.368;6.782;2023-01-19T14:33:46;100367.81;;;1.99;100.00
9257;BME280;4665;51.368;6.782;2023-01-19T14:38:47;100381.78;;;1.99;100.00
9257;BME280;4665;51.368;6.782;2023-01-19T14:41:31;100376.00;;;1.94;100.00
9257;BME280;4665;51.368;6.782;2023-01-19T14:44:00;100367.19;;;1.95;100.00
9257;BME280;4665;51.368;6.782;2023-01-19T14:46:27;100383.66;;;1.97;100.00
9257;BME280;4665;51.368;6.782;2023-01-19T14:48:58;100378.53;;;1.96;100.00
9257;BME280;4665;51.368;6.782;2023-01-19T14:51:26;100387.34;;;1.95;100.00
9257;BME280;4665;51.368;6.782;2023-01-19T14:53:54;100389.06;;;1.96;100.00
9257;BME280;4665;51.368;6.782;2023-01-19T14:56:28;100384.63;;;1.96;100.00
9257;BME280;4665;51.368;6.782;2023-01-19T14:58:55;100387.91;;;1.87;100.00
9257;BME280;4665;51.368;6.782;2023-01-19T15:01:21;100385.69;;;1.81;100.00
9257;BME280;4665;51.368;6.782;2023-01-19T15:03:47;100386.97;;;1.75;100.00